Huanuco, Peru
Current Conditions -  °F | °C
As of 9:00 PM on Saturday 22 Nov 2014 (Local Time) from SPCL Reporting Station
Few Clouds Few Clouds  
Wind Chill: 77°   Ceiling: Unl
Heat Index: 78°   Visibility: 6mi
Dew Point: 75°   Wind: 6mph
Humidity: 94%   Direction: 50°NE
Pressure: 29.83"   Gusts: NA
Location:  9.9°S, 75.75°W
Report Text: SPCL 230200Z 05005KT 9999 FEW017 25/24 Q1010 RMK VCTS PP000
Loading
Personal Weather Stations






























Interactive Weather Map New forecast layout! Learn more

10-Day Weather Forecast

Advertisements
Track Severe Weather on mobile